sensor_id;sensor_type;location;lat;lon;timestamp;P1;durP1;ratioP1;P2;durP2;ratioP2
11024;SDS011;22890;51.820;8.682;2024-01-15T00:00:29;24.07;;;12.27;;
11024;SDS011;22890;51.820;8.682;2024-01-15T00:02:56;26.10;;;13.17;;
11024;SDS011;22890;51.820;8.682;2024-01-15T00:05:24;23.13;;;11.60;;
11024;SDS011;22890;51.820;8.682;2024-01-15T00:07:51;25.77;;;13.40;;
11024;SDS011;22890;51.820;8.682;2024-01-15T00:10:18;22.33;;;11.90;;
11024;SDS011;22890;51.820;8.682;2024-01-15T00:12:44;23.73;;;12.33;;
11024;SDS011;22890;51.820;8.682;2024-01-15T00:15:12;20.50;;;11.27;;
11024;SDS011;22890;51.820;8.682;2024-01-15T00:17:39;20.80;;;10.90;;
11024;SDS011;22890;51.820;8.682;2024-01-15T00:20:06;23.37;;;11.50;;
11024;SDS011;22890;51.820;8.682;2024-01-15T00:22:33;20.30;;;10.33;;
11024;SDS011;22890;51.820;8.682;2024-01-15T00:25:02;19.40;;;10.27;;
11024;SDS011;22890;51.820;8.682;2024-01-15T00:27:29;22.20;;;12.13;;
11024;SDS011;22890;51.820;8.682;2024-01-15T00:29:56;23.47;;;11.53;;
11024;SDS011;22890;51.820;8.682;2024-01-15T00:32:23;19.90;;;10.57;;
11024;SDS011;22890;51.820;8.682;2024-01-15T00:34:50;17.73;;;10.13;;
11024;SDS011;22890;51.820;8.682;2024-01-15T00:37:18;18.30;;;10.63;;
11024;SDS011;22890;51.820;8.682;2024-01-15T00:39:45;20.20;;;10.33;;
11024;SDS011;22890;51.820;8.682;2024-01-15T00:42:12;13.53;;;8.73;;
11024;SDS011;22890;51.820;8.682;2024-01-15T00:44:39;19.80;;;10.27;;
11024;SDS011;22890;51.820;8.682;2024-01-15T00:47:06;22.20;;;11.23;;
11024;SDS011;22890;51.820;8.682;2024-01-15T00:49:34;16.53;;;9.93;;
11024;SDS011;22890;51.820;8.682;2024-01-15T00:52:01;18.47;;;9.43;;
11024;SDS011;22890;51.820;8.682;2024-01-15T00:54:28;20.67;;;10.27;;
11024;SDS011;22890;51.820;8.682;2024-01-15T00:56:55;18.27;;;10.40;;
11024;SDS011;22890;51.820;8.682;2024-01-15T00:59:22;12.30;;;7.43;;
11024;SDS011;22890;51.820;8.682;2024-01-15T01:01:49;14.77;;;8.33;;
11024;SDS011;22890;51.820;8.682;2024-01-15T01:04:16;14.47;;;8.40;;
11024;SDS011;22890;51.820;8.682;2024-01-15T01:06:44;15.70;;;9.60;;
11024;SDS011;22890;51.820;8.682;2024-01-15T01:09:11;13.40;;;7.50;;
11024;SDS011;22890;51.820;8.682;2024-01-15T01:11:38;12.13;;;6.83;;
11024;SDS011;22890;51.820;8.682;2024-01-15T01:14:05;11.77;;;7.30;;
11024;SDS011;22890;51.820;8.682;2024-01-15T01:16:32;11.93;;;7.80;;
11024;SDS011;22890;51.820;8.682;2024-01-15T01:19:05;13.03;;;7.70;;
11024;SDS011;22890;51.820;8.682;2024-01-15T01:21:33;16.13;;;6.40;;
11024;SDS011;22890;51.820;8.682;2024-01-15T01:24:00;13.87;;;7.43;;
11024;SDS011;22890;51.820;8.682;2024-01-15T01:26:27;10.47;;;5.93;;
11024;SDS011;22890;51.820;8.682;2024-01-15T01:28:55;10.30;;;5.73;;
11024;SDS011;22890;51.820;8.682;2024-01-15T01:31:21;9.77;;;5.60;;
11024;SDS011;22890;51.820;8.682;2024-01-15T01:33:48;12.60;;;6.43;;
11024;SDS011;22890;51.820;8.682;2024-01-15T01:36:16;11.57;;;5.43;;
11024;SDS011;22890;51.820;8.682;2024-01-15T01:38:43;11.27;;;5.87;;
11024;SDS011;22890;51.820;8.682;2024-01-15T01:41:10;11.47;;;6.33;;
11024;SDS011;22890;51.820;8.682;2024-01-15T01:43:37;9.87;;;5.20;;
11024;SDS011;22890;51.820;8.682;2024-01-15T01:46:04;10.17;;;6.03;;
11024;SDS011;22890;51.820;8.682;2024-01-15T01:48:31;8.67;;;5.50;;
11024;SDS011;22890;51.820;8.682;2024-01-15T01:51:00;7.93;;;5.30;;
11024;SDS011;22890;51.820;8.682;2024-01-15T01:53:29;11.27;;;5.87;;
11024;SDS011;22890;51.820;8.682;2024-01-15T01:55:57;14.37;;;5.80;;
11024;SDS011;22890;51.820;8.682;2024-01-15T01:58:24;10.93;;;7.30;;
11024;SDS011;22890;51.820;8.682;2024-01-15T02:00:52;11.80;;;6.47;;
11024;SDS011;22890;51.820;8.682;2024-01-15T02:03:19;9.83;;;6.10;;
11024;SDS011;22890;51.820;8.682;2024-01-15T02:05:47;14.23;;;7.83;;
11024;SDS011;22890;51.820;8.682;2024-01-15T02:08:15;14.10;;;8.07;;
11024;SDS011;22890;51.820;8.682;2024-01-15T02:10:43;13.10;;;7.40;;
11024;SDS011;22890;51.820;8.682;2024-01-15T02:13:10;14.50;;;7.00;;
11024;SDS011;22890;51.820;8.682;2024-01-15T02:15:37;14.97;;;7.10;;
11024;SDS011;22890;51.820;8.682;2024-01-15T02:18:05;11.93;;;7.60;;
11024;SDS011;22890;51.820;8.682;2024-01-15T02:20:34;12.40;;;6.80;;
11024;SDS011;22890;51.820;8.682;2024-01-15T02:23:08;16.50;;;8.37;;
11024;SDS011;22890;51.820;8.682;2024-01-15T02:25:39;15.57;;;6.63;;
11024;SDS011;22890;51.820;8.682;2024-01-15T02:28:08;9.90;;;6.00;;
11024;SDS011;22890;51.820;8.682;2024-01-15T02:30:37;11.77;;;7.13;;
11024;SDS011;22890;51.820;8.682;2024-01-15T02:33:07;21.20;;;7.03;;
11024;SDS011;22890;51.820;8.682;2024-01-15T02:35:35;25.70;;;7.00;;
11024;SDS011;22890;51.820;8.682;2024-01-15T02:38:03;11.90;;;6.43;;
11024;SDS011;22890;51.820;8.682;2024-01-15T02:40:31;10.37;;;6.23;;
11024;SDS011;22890;51.820;8.682;2024-01-15T02:42:58;10.50;;;6.13;;
11024;SDS011;22890;51.820;8.682;2024-01-15T02:45:25;13.07;;;6.30;;
11024;SDS011;22890;51.820;8.682;2024-01-15T02:47:53;11.53;;;6.67;;
11024;SDS011;22890;51.820;8.682;2024-01-15T02:50:20;19.63;;;7.97;;
11024;SDS011;22890;51.820;8.682;2024-01-15T02:52:47;15.17;;;6.60;;
11024;SDS011;22890;51.820;8.682;2024-01-15T02:55:14;12.27;;;6.87;;
11024;SDS011;22890;51.820;8.682;2024-01-15T02:57:41;10.50;;;6.83;;
11024;SDS011;22890;51.820;8.682;2024-01-15T03:00:08;20.97;;;7.17;;
11024;SDS011;22890;51.820;8.682;2024-01-15T03:02:36;19.43;;;8.73;;
11024;SDS011;22890;51.820;8.682;2024-01-15T03:05:12;16.33;;;7.37;;
11024;SDS011;22890;51.820;8.682;2024-01-15T03:07:38;20.33;;;8.00;;
11024;SDS011;22890;51.820;8.682;2024-01-15T03:10:05;16.77;;;7.37;;
11024;SDS011;22890;51.820;8.682;2024-01-15T03:12:33;16.33;;;8.43;;
11024;SDS011;22890;51.820;8.682;2024-01-15T03:15:00;14.27;;;7.63;;
11024;SDS011;22890;51.820;8.682;2024-01-15T03:17:27;19.07;;;8.73;;
11024;SDS011;22890;51.820;8.682;2024-01-15T03:19:54;15.80;;;8.17;;
11024;SDS011;22890;51.820;8.682;2024-01-15T03:22:21;21.37;;;8.37;;
11024;SDS011;22890;51.820;8.682;2024-01-15T03:24:48;14.47;;;8.17;;
11024;SDS011;22890;51.820;8.682;2024-01-15T03:27:16;18.50;;;8.77;;
11024;SDS011;22890;51.820;8.682;2024-01-15T03:29:43;25.87;;;9.03;;
11024;SDS011;22890;51.820;8.682;2024-01-15T03:32:10;22.17;;;10.30;;
11024;SDS011;22890;51.820;8.682;2024-01-15T03:34:37;19.43;;;11.33;;
11024;SDS011;22890;51.820;8.682;2024-01-15T03:37:04;20.10;;;10.53;;
11024;SDS011;22890;51.820;8.682;2024-01-15T03:39:31;21.20;;;9.60;;
11024;SDS011;22890;51.820;8.682;2024-01-15T03:41:59;16.00;;;7.67;;
11024;SDS011;22890;51.820;8.682;2024-01-15T03:44:26;21.50;;;8.63;;
11024;SDS011;22890;51.820;8.682;2024-01-15T03:46:53;15.60;;;8.73;;
11024;SDS011;22890;51.820;8.682;2024-01-15T03:49:20;18.63;;;7.73;;
11024;SDS011;22890;51.820;8.682;2024-01-15T03:51:47;22.77;;;9.47;;
11024;SDS011;22890;51.820;8.682;2024-01-15T03:54:14;18.77;;;8.27;;
11024;SDS011;22890;51.820;8.682;2024-01-15T03:56:45;19.23;;;8.10;;
11024;SDS011;22890;51.820;8.682;2024-01-15T03:59:13;20.40;;;8.67;;
11024;SDS011;22890;51.820;8.682;2024-01-15T04:01:40;20.10;;;8.77;;
11024;SDS011;22890;51.820;8.682;2024-01-15T04:04:07;17.93;;;8.70;;
11024;SDS011;22890;51.820;8.682;2024-01-15T04:06:34;19.23;;;7.57;;
11024;SDS011;22890;51.820;8.682;2024-01-15T04:09:02;14.23;;;7.63;;
11024;SDS011;22890;51.820;8.682;2024-01-15T04:11:29;15.70;;;7.43;;
11024;SDS011;22890;51.820;8.682;2024-01-15T04:13:56;16.90;;;7.47;;
11024;SDS011;22890;51.820;8.682;2024-01-15T04:16:23;22.10;;;9.00;;
11024;SDS011;22890;51.820;8.682;2024-01-15T04:18:50;23.07;;;8.63;;
11024;SDS011;22890;51.820;8.682;2024-01-15T04:21:17;13.87;;;7.00;;
11024;SDS011;22890;51.820;8.682;2024-01-15T04:23:45;13.13;;;6.53;;
11024;SDS011;22890;51.820;8.682;2024-01-15T04:26:12;19.90;;;8.70;;
11024;SDS011;22890;51.820;8.682;2024-01-15T04:28:39;17.00;;;8.23;;
11024;SDS011;22890;51.820;8.682;2024-01-15T04:31:06;21.87;;;9.27;;
11024;SDS011;22890;51.820;8.682;2024-01-15T04:33:34;20.20;;;8.73;;
11024;SDS011;22890;51.820;8.682;2024-01-15T04:36:01;14.40;;;7.87;;
11024;SDS011;22890;51.820;8.682;2024-01-15T04:38:30;19.13;;;8.57;;
11024;SDS011;22890;51.820;8.682;2024-01-15T04:40:56;14.03;;;7.63;;
11024;SDS011;22890;51.820;8.682;2024-01-15T04:43:24;11.43;;;7.20;;
11024;SDS011;22890;51.820;8.682;2024-01-15T04:45:51;19.23;;;7.50;;
11024;SDS011;22890;51.820;8.682;2024-01-15T04:48:18;10.80;;;7.03;;
11024;SDS011;22890;51.820;8.682;2024-01-15T04:50:45;17.30;;;7.37;;
11024;SDS011;22890;51.820;8.682;2024-01-15T04:53:12;12.30;;;7.67;;
11024;SDS011;22890;51.820;8.682;2024-01-15T04:55:39;13.67;;;6.13;;
11024;SDS011;22890;51.820;8.682;2024-01-15T04:58:06;13.53;;;6.63;;
11024;SDS011;22890;51.820;8.682;2024-01-15T05:00:33;14.40;;;6.77;;
11024;SDS011;22890;51.820;8.682;2024-01-15T05:03:00;13.10;;;7.17;;
11024;SDS011;22890;51.820;8.682;2024-01-15T05:05:27;14.43;;;6.53;;
11024;SDS011;22890;51.820;8.682;2024-01-15T05:07:54;13.27;;;7.33;;
11024;SDS011;22890;51.820;8.682;2024-01-15T05:10:21;16.13;;;6.53;;
11024;SDS011;22890;51.820;8.682;2024-01-15T05:12:47;14.03;;;7.60;;
11024;SDS011;22890;51.820;8.682;2024-01-15T05:15:15;16.27;;;8.20;;
11024;SDS011;22890;51.820;8.682;2024-01-15T05:17:42;20.50;;;9.17;;
11024;SDS011;22890;51.820;8.682;2024-01-15T05:20:09;12.03;;;6.97;;
11024;SDS011;22890;51.820;8.682;2024-01-15T05:22:36;16.00;;;8.13;;
11024;SDS011;22890;51.820;8.682;2024-01-15T05:25:03;16.80;;;8.80;;
11024;SDS011;22890;51.820;8.682;2024-01-15T05:27:30;19.87;;;8.73;;
11024;SDS011;22890;51.820;8.682;2024-01-15T05:29:57;17.63;;;8.50;;
11024;SDS011;22890;51.820;8.682;2024-01-15T05:32:25;16.47;;;8.43;;
11024;SDS011;22890;51.820;8.682;2024-01-15T05:34:51;20.60;;;8.07;;
11024;SDS011;22890;51.820;8.682;2024-01-15T05:37:19;13.63;;;8.30;;
11024;SDS011;22890;51.820;8.682;2024-01-15T05:39:46;14.83;;;7.97;;
11024;SDS011;22890;51.820;8.682;2024-01-15T05:42:13;13.30;;;6.90;;
11024;SDS011;22890;51.820;8.682;2024-01-15T05:44:40;11.03;;;6.67;;
11024;SDS011;22890;51.820;8.682;2024-01-15T05:47:07;16.23;;;8.65;;
11024;SDS011;22890;51.820;8.682;2024-01-15T05:49:34;20.10;;;7.70;;
11024;SDS011;22890;51.820;8.682;2024-01-15T05:52:02;12.37;;;6.53;;
11024;SDS011;22890;51.820;8.682;2024-01-15T05:54:29;13.20;;;6.60;;
11024;SDS011;22890;51.820;8.682;2024-01-15T05:56:56;13.33;;;6.13;;
11024;SDS011;22890;51.820;8.682;2024-01-15T05:59:23;12.47;;;5.80;;
11024;SDS011;22890;51.820;8.682;2024-01-15T06:01:51;11.47;;;5.97;;
11024;SDS011;22890;51.820;8.682;2024-01-15T06:04:18;12.47;;;5.83;;
11024;SDS011;22890;51.820;8.682;2024-01-15T06:06:45;11.50;;;6.60;;
11024;SDS011;22890;51.820;8.682;2024-01-15T06:09:13;17.90;;;7.93;;
11024;SDS011;22890;51.820;8.682;2024-01-15T06:11:40;17.67;;;8.37;;
11024;SDS011;22890;51.820;8.682;2024-01-15T06:14:07;21.87;;;8.93;;
11024;SDS011;22890;51.820;8.682;2024-01-15T06:16:34;18.37;;;8.63;;
11024;SDS011;22890;51.820;8.682;2024-01-15T06:19:00;13.10;;;8.27;;
11024;SDS011;22890;51.820;8.682;2024-01-15T06:21:28;15.77;;;9.07;;
11024;SDS011;22890;51.820;8.682;2024-01-15T06:23:55;18.43;;;10.43;;
11024;SDS011;22890;51.820;8.682;2024-01-15T06:26:23;18.10;;;9.27;;
11024;SDS011;22890;51.820;8.682;2024-01-15T06:28:50;19.30;;;11.17;;
11024;SDS011;22890;51.820;8.682;2024-01-15T06:31:18;18.80;;;9.57;;
11024;SDS011;22890;51.820;8.682;2024-01-15T06:33:45;20.07;;;9.93;;
11024;SDS011;22890;51.820;8.682;2024-01-15T06:36:14;15.90;;;9.33;;
11024;SDS011;22890;51.820;8.682;2024-01-15T06:38:43;19.73;;;10.80;;
11024;SDS011;22890;51.820;8.682;2024-01-15T06:41:10;20.97;;;9.67;;
11024;SDS011;22890;51.820;8.682;2024-01-15T06:43:37;19.47;;;10.73;;
11024;SDS011;22890;51.820;8.682;2024-01-15T06:46:04;15.57;;;9.50;;
11024;SDS011;22890;51.820;8.682;2024-01-15T06:48:34;27.27;;;10.50;;
11024;SDS011;22890;51.820;8.682;2024-01-15T06:51:01;18.40;;;10.43;;
11024;SDS011;22890;51.820;8.682;2024-01-15T06:53:28;17.70;;;8.87;;
11024;SDS011;22890;51.820;8.682;2024-01-15T06:55:55;11.60;;;7.17;;
11024;SDS011;22890;51.820;8.682;2024-01-15T06:58:22;10.80;;;6.93;;
11024;SDS011;22890;51.820;8.682;2024-01-15T07:00:50;16.10;;;6.40;;
11024;SDS011;22890;51.820;8.682;2024-01-15T07:03:17;16.60;;;6.43;;
11024;SDS011;22890;51.820;8.682;2024-01-15T07:05:44;13.77;;;6.67;;
11024;SDS011;22890;51.820;8.682;2024-01-15T07:08:11;14.67;;;7.17;;
11024;SDS011;22890;51.820;8.682;2024-01-15T07:10:38;12.93;;;7.17;;
11024;SDS011;22890;51.820;8.682;2024-01-15T07:13:05;21.97;;;7.40;;
11024;SDS011;22890;51.820;8.682;2024-01-15T07:15:33;11.17;;;6.40;;
11024;SDS011;22890;51.820;8.682;2024-01-15T07:18:00;9.00;;;5.40;;
11024;SDS011;22890;51.820;8.682;2024-01-15T07:20:28;12.17;;;6.93;;
11024;SDS011;22890;51.820;8.682;2024-01-15T07:22:55;10.53;;;5.50;;
11024;SDS011;22890;51.820;8.682;2024-01-15T07:25:22;10.17;;;5.80;;
11024;SDS011;22890;51.820;8.682;2024-01-15T07:27:52;13.10;;;5.53;;
11024;SDS011;22890;51.820;8.682;2024-01-15T07:30:20;11.33;;;5.10;;
11024;SDS011;22890;51.820;8.682;2024-01-15T07:32:48;14.60;;;4.70;;
11024;SDS011;22890;51.820;8.682;2024-01-15T07:35:16;12.43;;;6.23;;
11024;SDS011;22890;51.820;8.682;2024-01-15T07:37:43;11.00;;;4.67;;
11024;SDS011;22890;51.820;8.682;2024-01-15T07:40:10;10.80;;;5.73;;
11024;SDS011;22890;51.820;8.682;2024-01-15T07:42:38;7.97;;;4.60;;
11024;SDS011;22890;51.820;8.682;2024-01-15T07:45:06;8.57;;;5.10;;
11024;SDS011;22890;51.820;8.682;2024-01-15T07:47:34;10.43;;;4.53;;
11024;SDS011;22890;51.820;8.682;2024-01-15T07:50:01;5.50;;;3.90;;
11024;SDS011;22890;51.820;8.682;2024-01-15T07:52:31;6.83;;;4.40;;
11024;SDS011;22890;51.820;8.682;2024-01-15T07:54:58;10.20;;;4.37;;
11024;SDS011;22890;51.820;8.682;2024-01-15T07:57:26;11.70;;;5.10;;
11024;SDS011;22890;51.820;8.682;2024-01-15T07:59:53;9.50;;;4.97;;
11024;SDS011;22890;51.820;8.682;2024-01-15T08:02:21;10.33;;;4.40;;
11024;SDS011;22890;51.820;8.682;2024-01-15T08:04:48;11.17;;;5.17;;
11024;SDS011;22890;51.820;8.682;2024-01-15T08:07:15;7.23;;;4.10;;
11024;SDS011;22890;51.820;8.682;2024-01-15T08:09:42;9.67;;;4.80;;
11024;SDS011;22890;51.820;8.682;2024-01-15T08:12:09;10.00;;;4.70;;
11024;SDS011;22890;51.820;8.682;2024-01-15T08:14:37;7.07;;;4.57;;
11024;SDS011;22890;51.820;8.682;2024-01-15T08:17:05;8.43;;;5.57;;
11024;SDS011;22890;51.820;8.682;2024-01-15T08:19:32;9.70;;;5.00;;
11024;SDS011;22890;51.820;8.682;2024-01-15T08:21:59;10.27;;;5.30;;
11024;SDS011;22890;51.820;8.682;2024-01-15T08:24:26;8.17;;;5.27;;
11024;SDS011;22890;51.820;8.682;2024-01-15T08:26:54;7.33;;;5.17;;
11024;SDS011;22890;51.820;8.682;2024-01-15T08:29:22;10.37;;;5.67;;
11024;SDS011;22890;51.820;8.682;2024-01-15T08:31:50;10.33;;;5.93;;
11024;SDS011;22890;51.820;8.682;2024-01-15T08:34:18;14.53;;;6.67;;
11024;SDS011;22890;51.820;8.682;2024-01-15T08:36:45;9.77;;;6.93;;
11024;SDS011;22890;51.820;8.682;2024-01-15T08:39:13;13.53;;;6.63;;
11024;SDS011;22890;51.820;8.682;2024-01-15T08:41:40;13.33;;;7.47;;
11024;SDS011;22890;51.820;8.682;2024-01-15T08:44:07;10.87;;;8.30;;
11024;SDS011;22890;51.820;8.682;2024-01-15T08:46:34;11.93;;;8.10;;
11024;SDS011;22890;51.820;8.682;2024-01-15T08:49:01;14.87;;;9.60;;
11024;SDS011;22890;51.820;8.682;2024-01-15T08:51:29;15.23;;;8.97;;
11024;SDS011;22890;51.820;8.682;2024-01-15T08:53:56;13.63;;;8.53;;
11024;SDS011;22890;51.820;8.682;2024-01-15T08:56:24;12.53;;;8.53;;
11024;SDS011;22890;51.820;8.682;2024-01-15T08:58:53;16.17;;;8.63;;
11024;SDS011;22890;51.820;8.682;2024-01-15T09:01:20;14.70;;;8.27;;
11024;SDS011;22890;51.820;8.682;2024-01-15T09:03:49;16.03;;;8.63;;
11024;SDS011;22890;51.820;8.682;2024-01-15T09:06:16;14.63;;;9.17;;
11024;SDS011;22890;51.820;8.682;2024-01-15T09:08:44;17.53;;;9.03;;
11024;SDS011;22890;51.820;8.682;2024-01-15T09:11:11;17.03;;;9.20;;
11024;SDS011;22890;51.820;8.682;2024-01-15T09:13:38;14.33;;;8.93;;
11024;SDS011;22890;51.820;8.682;2024-01-15T09:16:06;16.57;;;9.60;;
11024;SDS011;22890;51.820;8.682;2024-01-15T09:18:33;15.47;;;9.27;;
11024;SDS011;22890;51.820;8.682;2024-01-15T09:21:01;20.10;;;11.27;;
11024;SDS011;22890;51.820;8.682;2024-01-15T09:23:29;18.27;;;10.87;;
11024;SDS011;22890;51.820;8.682;2024-01-15T09:25:56;20.70;;;11.20;;
11024;SDS011;22890;51.820;8.682;2024-01-15T09:28:23;20.27;;;10.90;;
11024;SDS011;22890;51.820;8.682;2024-01-15T09:30:50;18.57;;;10.67;;
11024;SDS011;22890;51.820;8.682;2024-01-15T09:33:17;19.93;;;10.73;;
11024;SDS011;22890;51.820;8.682;2024-01-15T09:35:45;16.40;;;11.17;;
11024;SDS011;22890;51.820;8.682;2024-01-15T09:38:12;22.13;;;10.90;;
11024;SDS011;22890;51.820;8.682;2024-01-15T09:40:39;16.43;;;10.07;;
11024;SDS011;22890;51.820;8.682;2024-01-15T09:43:11;20.47;;;10.13;;
11024;SDS011;22890;51.820;8.682;2024-01-15T09:45:39;18.77;;;10.20;;
11024;SDS011;22890;51.820;8.682;2024-01-15T09:48:06;20.73;;;11.40;;
11024;SDS011;22890;51.820;8.682;2024-01-15T09:50:33;16.07;;;9.60;;
11024;SDS011;22890;51.820;8.682;2024-01-15T09:53:00;15.53;;;8.63;;
11024;SDS011;22890;51.820;8.682;2024-01-15T09:55:28;16.90;;;9.80;;
11024;SDS011;22890;51.820;8.682;2024-01-15T09:57:55;14.43;;;9.10;;
11024;SDS011;22890;51.820;8.682;2024-01-15T10:00:24;12.27;;;8.10;;
11024;SDS011;22890;51.820;8.682;2024-01-15T10:02:52;9.03;;;6.40;;
11024;SDS011;22890;51.820;8.682;2024-01-15T10:05:19;11.67;;;5.97;;
11024;SDS011;22890;51.820;8.682;2024-01-15T10:07:46;9.10;;;4.67;;
11024;SDS011;22890;51.820;8.682;2024-01-15T10:10:16;6.83;;;4.30;;
11024;SDS011;22890;51.820;8.682;2024-01-15T10:12:43;6.77;;;4.63;;
11024;SDS011;22890;51.820;8.682;2024-01-15T10:15:10;7.10;;;3.93;;
11024;SDS011;22890;51.820;8.682;2024-01-15T10:17:38;7.37;;;4.83;;
11024;SDS011;22890;51.820;8.682;2024-01-15T10:20:12;7.27;;;3.77;;
11024;SDS011;22890;51.820;8.682;2024-01-15T10:22:42;7.90;;;3.50;;
11024;SDS011;22890;51.820;8.682;2024-01-15T10:25:10;5.50;;;3.53;;
11024;SDS011;22890;51.820;8.682;2024-01-15T10:27:37;4.37;;;3.03;;
11024;SDS011;22890;51.820;8.682;2024-01-15T10:30:04;6.97;;;3.73;;
11024;SDS011;22890;51.820;8.682;2024-01-15T10:32:32;7.23;;;6.50;;
11024;SDS011;22890;51.820;8.682;2024-01-15T10:34:59;7.07;;;3.83;;
11024;SDS011;22890;51.820;8.682;2024-01-15T10:37:26;6.23;;;3.03;;
11024;SDS011;22890;51.820;8.682;2024-01-15T10:39:55;5.57;;;3.50;;
11024;SDS011;22890;51.820;8.682;2024-01-15T10:42:22;6.43;;;4.30;;
11024;SDS011;22890;51.820;8.682;2024-01-15T10:44:49;7.83;;;2.93;;
11024;SDS011;22890;51.820;8.682;2024-01-15T10:47:16;8.23;;;2.67;;
11024;SDS011;22890;51.820;8.682;2024-01-15T10:49:44;5.40;;;2.97;;
11024;SDS011;22890;51.820;8.682;2024-01-15T10:52:11;3.47;;;2.40;;
11024;SDS011;22890;51.820;8.682;2024-01-15T10:54:38;4.50;;;2.33;;
11024;SDS011;22890;51.820;8.682;2024-01-15T10:57:06;6.20;;;3.37;;
11024;SDS011;22890;51.820;8.682;2024-01-15T10:59:33;5.03;;;2.40;;
11024;SDS011;22890;51.820;8.682;2024-01-15T11:02:00;4.70;;;2.87;;
11024;SDS011;22890;51.820;8.682;2024-01-15T11:04:27;5.33;;;2.23;;
11024;SDS011;22890;51.820;8.682;2024-01-15T11:06:55;4.40;;;2.10;;
11024;SDS011;22890;51.820;8.682;2024-01-15T11:09:23;10.90;;;2.93;;
11024;SDS011;22890;51.820;8.682;2024-01-15T11:11:52;5.20;;;2.60;;
11024;SDS011;22890;51.820;8.682;2024-01-15T11:14:34;6.90;;;3.03;;
11024;SDS011;22890;51.820;8.682;2024-01-15T11:17:10;3.77;;;2.67;;
11024;SDS011;22890;51.820;8.682;2024-01-15T11:19:44;4.17;;;2.47;;
11024;SDS011;22890;51.820;8.682;2024-01-15T11:25:02;3.90;;;2.60;;
11024;SDS011;22890;51.820;8.682;2024-01-15T11:27:42;5.67;;;2.60;;
11024;SDS011;22890;51.820;8.682;2024-01-15T11:30:19;6.20;;;2.70;;
11024;SDS011;22890;51.820;8.682;2024-01-15T11:32:50;7.13;;;3.30;;
11024;SDS011;22890;51.820;8.682;2024-01-15T11:35:17;4.17;;;2.37;;
11024;SDS011;22890;51.820;8.682;2024-01-15T11:40:18;3.47;;;2.63;;
11024;SDS011;22890;51.820;8.682;2024-01-15T11:42:59;7.90;;;3.33;;
11024;SDS011;22890;51.820;8.682;2024-01-15T11:45:26;10.40;;;3.10;;
11024;SDS011;22890;51.820;8.682;2024-01-15T11:50:44;4.83;;;2.93;;
11024;SDS011;22890;51.820;8.682;2024-01-15T11:55:58;5.40;;;3.13;;
11024;SDS011;22890;51.820;8.682;2024-01-15T11:58:27;6.03;;;2.27;;
11024;SDS011;22890;51.820;8.682;2024-01-15T12:00:54;4.33;;;3.23;;
11024;SDS011;22890;51.820;8.682;2024-01-15T12:03:22;6.33;;;2.57;;
11024;SDS011;22890;51.820;8.682;2024-01-15T12:05:51;4.83;;;2.43;;
11024;SDS011;22890;51.820;8.682;2024-01-15T12:08:22;4.37;;;2.47;;
11024;SDS011;22890;51.820;8.682;2024-01-15T12:10:50;5.10;;;2.20;;
11024;SDS011;22890;51.820;8.682;2024-01-15T12:13:17;5.73;;;2.40;;
11024;SDS011;22890;51.820;8.682;2024-01-15T12:15:45;4.87;;;2.30;;
11024;SDS011;22890;51.820;8.682;2024-01-15T12:18:13;3.30;;;2.13;;
11024;SDS011;22890;51.820;8.682;2024-01-15T12:20:43;3.27;;;1.90;;
11024;SDS011;22890;51.820;8.682;2024-01-15T12:23:12;2.30;;;1.83;;
11024;SDS011;22890;51.820;8.682;2024-01-15T12:25:40;5.03;;;2.07;;
11024;SDS011;22890;51.820;8.682;2024-01-15T12:28:07;2.03;;;1.67;;
11024;SDS011;22890;51.820;8.682;2024-01-15T12:30:34;4.70;;;1.73;;
11024;SDS011;22890;51.820;8.682;2024-01-15T12:33:03;3.23;;;2.13;;
11024;SDS011;22890;51.820;8.682;2024-01-15T12:35:31;7.03;;;2.00;;
11024;SDS011;22890;51.820;8.682;2024-01-15T12:37:59;6.03;;;2.23;;
11024;SDS011;22890;51.820;8.682;2024-01-15T12:40:29;3.33;;;1.63;;
11024;SDS011;22890;51.820;8.682;2024-01-15T12:42:58;2.63;;;2.20;;
11024;SDS011;22890;51.820;8.682;2024-01-15T12:45:25;6.73;;;2.13;;
11024;SDS011;22890;51.820;8.682;2024-01-15T12:47:53;2.33;;;1.77;;
11024;SDS011;22890;51.820;8.682;2024-01-15T12:50:23;2.53;;;1.33;;
11024;SDS011;22890;51.820;8.682;2024-01-15T12:52:51;4.03;;;1.90;;
11024;SDS011;22890;51.820;8.682;2024-01-15T12:55:18;2.30;;;1.57;;
11024;SDS011;22890;51.820;8.682;2024-01-15T12:57:45;5.33;;;1.70;;
11024;SDS011;22890;51.820;8.682;2024-01-15T13:00:12;3.50;;;1.60;;
11024;SDS011;22890;51.820;8.682;2024-01-15T13:02:41;8.30;;;2.63;;
11024;SDS011;22890;51.820;8.682;2024-01-15T13:05:10;5.57;;;1.97;;
11024;SDS011;22890;51.820;8.682;2024-01-15T13:07:40;4.80;;;1.93;;
11024;SDS011;22890;51.820;8.682;2024-01-15T13:10:08;5.20;;;2.90;;
11024;SDS011;22890;51.820;8.682;2024-01-15T13:12:36;5.23;;;1.87;;
11024;SDS011;22890;51.820;8.682;2024-01-15T13:15:04;3.17;;;1.50;;
11024;SDS011;22890;51.820;8.682;2024-01-15T13:17:31;3.03;;;1.63;;
11024;SDS011;22890;51.820;8.682;2024-01-15T13:19:59;6.83;;;2.10;;
11024;SDS011;22890;51.820;8.682;2024-01-15T13:22:26;2.40;;;1.90;;
11024;SDS011;22890;51.820;8.682;2024-01-15T13:24:58;3.67;;;1.97;;
11024;SDS011;22890;51.820;8.682;2024-01-15T13:27:26;5.80;;;1.57;;
11024;SDS011;22890;51.820;8.682;2024-01-15T13:29:54;5.50;;;3.23;;
11024;SDS011;22890;51.820;8.682;2024-01-15T13:32:23;9.10;;;3.10;;
11024;SDS011;22890;51.820;8.682;2024-01-15T13:34:55;9.67;;;3.63;;
11024;SDS011;22890;51.820;8.682;2024-01-15T13:37:22;5.23;;;3.53;;
11024;SDS011;22890;51.820;8.682;2024-01-15T13:39:53;4.97;;;2.73;;
11024;SDS011;22890;51.820;8.682;2024-01-15T13:42:20;5.90;;;2.70;;
11024;SDS011;22890;51.820;8.682;2024-01-15T13:44:53;5.17;;;2.63;;
11024;SDS011;22890;51.820;8.682;2024-01-15T13:47:20;6.20;;;2.97;;
11024;SDS011;22890;51.820;8.682;2024-01-15T13:49:47;4.37;;;2.47;;
11024;SDS011;22890;51.820;8.682;2024-01-15T13:52:16;5.63;;;1.90;;
11024;SDS011;22890;51.820;8.682;2024-01-15T13:54:44;6.07;;;2.40;;
11024;SDS011;22890;51.820;8.682;2024-01-15T13:57:16;2.50;;;2.10;;
11024;SDS011;22890;51.820;8.682;2024-01-15T13:59:44;4.03;;;1.90;;
11024;SDS011;22890;51.820;8.682;2024-01-15T14:02:12;4.93;;;2.50;;
11024;SDS011;22890;51.820;8.682;2024-01-15T14:04:41;14.20;;;2.63;;
11024;SDS011;22890;51.820;8.682;2024-01-15T14:07:08;4.77;;;2.37;;
11024;SDS011;22890;51.820;8.682;2024-01-15T14:09:35;5.93;;;2.93;;
11024;SDS011;22890;51.820;8.682;2024-01-15T14:12:04;4.57;;;2.70;;
11024;SDS011;22890;51.820;8.682;2024-01-15T14:14:32;6.37;;;2.70;;
11024;SDS011;22890;51.820;8.682;2024-01-15T14:16:59;6.10;;;2.20;;
11024;SDS011;22890;51.820;8.682;2024-01-15T14:19:26;5.40;;;2.20;;
11024;SDS011;22890;51.820;8.682;2024-01-15T14:21:54;3.13;;;2.33;;
11024;SDS011;22890;51.820;8.682;2024-01-15T14:24:21;9.70;;;2.37;;
11024;SDS011;22890;51.820;8.682;2024-01-15T14:26:49;4.47;;;2.33;;
11024;SDS011;22890;51.820;8.682;2024-01-15T14:29:16;2.53;;;2.00;;
11024;SDS011;22890;51.820;8.682;2024-01-15T14:31:45;5.20;;;2.30;;
11024;SDS011;22890;51.820;8.682;2024-01-15T14:34:13;6.93;;;2.43;;
11024;SDS011;22890;51.820;8.682;2024-01-15T14:36:40;3.83;;;1.93;;
11024;SDS011;22890;51.820;8.682;2024-01-15T14:39:07;3.07;;;2.43;;
11024;SDS011;22890;51.820;8.682;2024-01-15T14:41:35;5.07;;;2.60;;
11024;SDS011;22890;51.820;8.682;2024-01-15T14:44:03;5.60;;;2.50;;
11024;SDS011;22890;51.820;8.682;2024-01-15T14:46:30;5.83;;;3.07;;
11024;SDS011;22890;51.820;8.682;2024-01-15T14:48:57;4.10;;;1.83;;
11024;SDS011;22890;51.820;8.682;2024-01-15T14:51:25;3.70;;;2.80;;